sensor_id;sensor_type;location;lat;lon;timestamp;pressure;altitude;pressure_sealevel;temperature;humidity
11302;BME280;5706;50.650;13.380;2023-04-05T00:00:32;91580.31;;;-140.63;56.86
11302;BME280;5706;50.650;13.380;2023-04-05T00:03:00;91582.31;;;-140.63;57.62
11302;BME280;5706;50.650;13.380;2023-04-05T00:05:28;91592.38;;;-140.63;57.67
11302;BME280;5706;50.650;13.380;2023-04-05T00:07:59;91582.31;;;-140.63;57.17
11302;BME280;5706;50.650;13.380;2023-04-05T00:10:30;91592.38;;;-140.63;57.29
11302;BME280;5706;50.650;13.380;2023-04-05T00:12:57;91606.44;;;-140.63;56.35
11302;BME280;5706;50.650;13.380;2023-04-05T00:15:26;91612.44;;;-140.63;56.91
11302;BME280;5706;50.650;13.380;2023-04-05T00:17:54;91590.34;;;-140.63;56.67
11302;BME280;5706;50.650;13.380;2023-04-05T00:20:22;91570.25;;;-140.63;56.31
11302;BME280;5706;50.650;13.380;2023-04-05T00:22:50;91616.47;;;-140.63;57.04
11302;BME280;5706;50.650;13.380;2023-04-05T00:25:17;91590.34;;;-140.63;57.22
11302;BME280;5706;50.650;13.380;2023-04-05T00:27:49;91656.66;;;-140.63;57.10
11302;BME280;5706;50.650;13.380;2023-04-05T00:30:16;91556.19;;;-140.63;56.18
11302;BME280;5706;50.650;13.380;2023-04-05T00:32:46;91576.28;;;-140.63;56.51
11302;BME280;5706;50.650;13.380;2023-04-05T00:35:15;91590.34;;;-140.63;57.17
11302;BME280;5706;50.650;13.380;2023-04-05T00:37:42;91568.25;;;-140.63;57.48
11302;BME280;5706;50.650;13.380;2023-04-05T00:40:10;91594.38;;;-140.63;57.23
11302;BME280;5706;50.650;13.380;2023-04-05T00:42:38;91590.34;;;-140.63;57.05
11302;BME280;5706;50.650;13.380;2023-04-05T00:45:07;91592.38;;;-140.63;57.19
11302;BME280;5706;50.650;13.380;2023-04-05T00:47:36;91582.31;;;-140.63;57.62
11302;BME280;5706;50.650;13.380;2023-04-05T00:50:05;91568.25;;;-140.63;57.57
11302;BME280;5706;50.650;13.380;2023-04-05T00:52:34;91598.38;;;-140.63;58.50
11302;BME280;5706;50.650;13.380;2023-04-05T00:55:03;91580.31;;;-140.63;57.39
11302;BME280;5706;50.650;13.380;2023-04-05T00:57:32;91600.41;;;-140.63;57.03
11302;BME280;5706;50.650;13.380;2023-04-05T01:00:05;91582.31;;;-140.63;57.64
11302;BME280;5706;50.650;13.380;2023-04-05T01:02:40;91606.44;;;-140.63;57.88
11302;BME280;5706;50.650;13.380;2023-04-05T01:05:20;91570.25;;;-140.63;57.77
11302;BME280;5706;50.650;13.380;2023-04-05T01:08:06;91598.38;;;-140.63;57.81
11302;BME280;5706;50.650;13.380;2023-04-05T01:10:41;91578.31;;;-140.63;56.82
11302;BME280;5706;50.650;13.380;2023-04-05T01:13:15;91656.66;;;-140.63;56.82
11302;BME280;5706;50.650;13.380;2023-04-05T01:15:44;91562.22;;;-140.63;57.09
11302;BME280;5706;50.650;13.380;2023-04-05T01:18:12;91596.38;;;-140.63;57.61
11302;BME280;5706;50.650;13.380;2023-04-05T01:20:45;91574.28;;;-140.63;57.93
11302;BME280;5706;50.650;13.380;2023-04-05T01:23:36;91604.41;;;-140.63;56.86
11302;BME280;5706;50.650;13.380;2023-04-05T01:26:45;91612.44;;;-140.63;57.66
11302;BME280;5706;50.650;13.380;2023-04-05T01:32:43;91584.31;;;-140.63;57.58
11302;BME280;5706;50.650;13.380;2023-04-05T01:35:21;91596.38;;;-140.63;57.67
11302;BME280;5706;50.650;13.380;2023-04-05T01:37:58;91564.25;;;-140.63;57.57
11302;BME280;5706;50.650;13.380;2023-04-05T01:40:29;91596.38;;;-140.63;57.72
11302;BME280;5706;50.650;13.380;2023-04-05T01:43:00;91584.31;;;-140.63;56.95
11302;BME280;5706;50.650;13.380;2023-04-05T01:45:30;91576.28;;;-140.63;57.37
11302;BME280;5706;50.650;13.380;2023-04-05T01:47:58;91576.28;;;-140.63;57.90
11302;BME280;5706;50.650;13.380;2023-04-05T01:50:25;91568.25;;;-140.63;57.65
11302;BME280;5706;50.650;13.380;2023-04-05T01:52:53;91596.38;;;-140.63;57.36
11302;BME280;5706;50.650;13.380;2023-04-05T01:55:20;91562.22;;;-140.63;57.24
11302;BME280;5706;50.650;13.380;2023-04-05T01:57:48;91688.78;;;-140.63;58.32
11302;BME280;5706;50.650;13.380;2023-04-05T02:00:16;91592.38;;;-140.63;58.04
11302;BME280;5706;50.650;13.380;2023-04-05T02:02:45;91548.16;;;-140.63;57.68
11302;BME280;5706;50.650;13.380;2023-04-05T02:05:12;91572.28;;;-140.63;57.47
11302;BME280;5706;50.650;13.380;2023-04-05T02:07:40;91566.25;;;-140.63;56.91
11302;BME280;5706;50.650;13.380;2023-04-05T02:10:08;91608.44;;;-140.63;58.08
11302;BME280;5706;50.650;13.380;2023-04-05T02:12:35;91556.19;;;-140.63;58.31
11302;BME280;5706;50.650;13.380;2023-04-05T02:15:04;91576.28;;;-140.63;58.24
11302;BME280;5706;50.650;13.380;2023-04-05T02:17:32;91684.78;;;-140.63;58.16
11302;BME280;5706;50.650;13.380;2023-04-05T02:20:05;91586.34;;;-140.63;57.15
11302;BME280;5706;50.650;13.380;2023-04-05T02:22:36;91588.34;;;-140.63;58.25
11302;BME280;5706;50.650;13.380;2023-04-05T02:25:05;91590.34;;;-140.63;58.31
11302;BME280;5706;50.650;13.380;2023-04-05T02:27:35;91624.50;;;-140.63;59.09
11302;BME280;5706;50.650;13.380;2023-04-05T02:30:03;91596.38;;;-140.63;58.98
11302;BME280;5706;50.650;13.380;2023-04-05T02:32:31;91560.22;;;-140.63;58.57
11302;BME280;5706;50.650;13.380;2023-04-05T02:34:59;91574.28;;;-140.63;58.87
11302;BME280;5706;50.650;13.380;2023-04-05T02:37:29;91590.34;;;-140.63;58.72
11302;BME280;5706;50.650;13.380;2023-04-05T02:39:57;91580.31;;;-140.63;58.77
11302;BME280;5706;50.650;13.380;2023-04-05T02:42:25;91584.31;;;-140.63;58.84
11302;BME280;5706;50.650;13.380;2023-04-05T02:44:52;91562.22;;;-140.63;58.57
11302;BME280;5706;50.650;13.380;2023-04-05T02:47:20;91584.31;;;-140.63;58.55
11302;BME280;5706;50.650;13.380;2023-04-05T02:49:47;91582.31;;;-140.63;59.00
11302;BME280;5706;50.650;13.380;2023-04-05T02:52:15;91588.34;;;-140.63;58.78
11302;BME280;5706;50.650;13.380;2023-04-05T02:54:44;91612.44;;;-140.63;58.97
11302;BME280;5706;50.650;13.380;2023-04-05T02:57:12;91552.19;;;-140.63;58.27
11302;BME280;5706;50.650;13.380;2023-04-05T02:59:40;91576.28;;;-140.63;58.17
11302;BME280;5706;50.650;13.380;2023-04-05T03:02:08;91540.13;;;-140.63;58.24
11302;BME280;5706;50.650;13.380;2023-04-05T03:04:36;91572.28;;;-140.63;58.30
11302;BME280;5706;50.650;13.380;2023-04-05T03:07:05;91554.19;;;-140.63;58.62
11302;BME280;5706;50.650;13.380;2023-04-05T03:09:34;91584.31;;;-140.63;58.67
11302;BME280;5706;50.650;13.380;2023-04-05T03:12:04;91610.44;;;-140.63;58.57
11302;BME280;5706;50.650;13.380;2023-04-05T03:14:32;91550.19;;;-140.63;57.79
11302;BME280;5706;50.650;13.380;2023-04-05T03:17:00;91578.31;;;-140.63;58.88
11302;BME280;5706;50.650;13.380;2023-04-05T03:19:28;91576.28;;;-140.63;59.08
11302;BME280;5706;50.650;13.380;2023-04-05T03:21:56;91562.22;;;-140.63;58.73
11302;BME280;5706;50.650;13.380;2023-04-05T03:24:24;91588.34;;;-140.63;58.35
11302;BME280;5706;50.650;13.380;2023-04-05T03:26:52;91608.44;;;-140.63;58.91
11302;BME280;5706;50.650;13.380;2023-04-05T03:29:21;91556.19;;;-140.63;58.47
11302;BME280;5706;50.650;13.380;2023-04-05T03:31:48;91588.34;;;-140.63;59.31
11302;BME280;5706;50.650;13.380;2023-04-05T03:34:16;91614.47;;;-140.63;59.38
11302;BME280;5706;50.650;13.380;2023-04-05T03:36:43;91556.19;;;-140.63;59.13
11302;BME280;5706;50.650;13.380;2023-04-05T03:39:14;91578.31;;;-140.63;58.85
11302;BME280;5706;50.650;13.380;2023-04-05T03:41:41;91576.28;;;-140.63;59.13
11302;BME280;5706;50.650;13.380;2023-04-05T03:44:09;91592.38;;;-140.63;58.77
11302;BME280;5706;50.650;13.380;2023-04-05T03:46:38;91602.41;;;-140.63;57.90
11302;BME280;5706;50.650;13.380;2023-04-05T03:49:06;91592.38;;;-140.63;59.15
11302;BME280;5706;50.650;13.380;2023-04-05T03:51:34;91560.22;;;-140.63;59.14
11302;BME280;5706;50.650;13.380;2023-04-05T03:54:01;91580.31;;;-140.63;59.42
11302;BME280;5706;50.650;13.380;2023-04-05T03:56:29;91552.19;;;-140.63;59.29
11302;BME280;5706;50.650;13.380;2023-04-05T03:58:58;91572.28;;;-140.63;59.54
11302;BME280;5706;50.650;13.380;2023-04-05T04:01:26;91578.31;;;-140.63;59.85
11302;BME280;5706;50.650;13.380;2023-04-05T04:03:55;91586.34;;;-140.63;60.06
11302;BME280;5706;50.650;13.380;2023-04-05T04:06:24;91602.41;;;-140.63;59.55
11302;BME280;5706;50.650;13.380;2023-04-05T04:08:52;91596.38;;;-140.63;59.60
11302;BME280;5706;50.650;13.380;2023-04-05T04:11:21;91570.25;;;-140.63;59.10
11302;BME280;5706;50.650;13.380;2023-04-05T04:13:48;91586.34;;;-140.63;59.08
11302;BME280;5706;50.650;13.380;2023-04-05T04:16:17;91642.59;;;-140.63;58.95
11302;BME280;5706;50.650;13.380;2023-04-05T04:18:45;91628.53;;;-140.63;59.55
11302;BME280;5706;50.650;13.380;2023-04-05T04:21:13;91576.28;;;-140.63;59.90
11302;BME280;5706;50.650;13.380;2023-04-05T04:23:43;91570.25;;;-140.63;59.38
11302;BME280;5706;50.650;13.380;2023-04-05T04:26:11;91598.38;;;-140.63;59.13
11302;BME280;5706;50.650;13.380;2023-04-05T04:28:39;91550.19;;;-140.63;59.31
11302;BME280;5706;50.650;13.380;2023-04-05T04:31:11;91572.28;;;-140.63;59.08
11302;BME280;5706;50.650;13.380;2023-04-05T04:33:38;91598.38;;;-140.63;59.69
11302;BME280;5706;50.650;13.380;2023-04-05T04:36:08;91572.28;;;-140.63;59.89
11302;BME280;5706;50.650;13.380;2023-04-05T04:38:40;91564.25;;;-140.63;59.31
11302;BME280;5706;50.650;13.380;2023-04-05T04:41:09;91598.38;;;-140.63;59.42
11302;BME280;5706;50.650;13.380;2023-04-05T04:43:37;91584.31;;;-140.63;59.55
11302;BME280;5706;50.650;13.380;2023-04-05T04:46:07;91652.63;;;-140.63;59.17
11302;BME280;5706;50.650;13.380;2023-04-05T04:48:40;91566.25;;;-140.63;58.97
11302;BME280;5706;50.650;13.380;2023-04-05T04:51:07;91552.19;;;-140.63;58.75
11302;BME280;5706;50.650;13.380;2023-04-05T04:53:35;91562.22;;;-140.63;59.29
11302;BME280;5706;50.650;13.380;2023-04-05T04:56:07;91576.28;;;-140.63;59.06
11302;BME280;5706;50.650;13.380;2023-04-05T04:58:36;91584.31;;;-140.63;59.48
11302;BME280;5706;50.650;13.380;2023-04-05T05:01:06;91532.09;;;-140.63;60.02
11302;BME280;5706;50.650;13.380;2023-04-05T05:03:35;91562.22;;;-140.63;58.46
11302;BME280;5706;50.650;13.380;2023-04-05T05:06:04;91588.34;;;-140.63;59.08
11302;BME280;5706;50.650;13.380;2023-04-05T05:08:32;91530.09;;;-140.63;59.83
11302;BME280;5706;50.650;13.380;2023-04-05T05:11:00;91538.13;;;-140.63;59.87
11302;BME280;5706;50.650;13.380;2023-04-05T05:13:30;91572.28;;;-140.63;59.80
11302;BME280;5706;50.650;13.380;2023-04-05T05:15:58;91558.22;;;-140.63;60.11
11302;BME280;5706;50.650;13.380;2023-04-05T05:18:26;91574.28;;;-140.63;58.60
11302;BME280;5706;50.650;13.380;2023-04-05T05:20:54;91542.16;;;-140.63;58.76
11302;BME280;5706;50.650;13.380;2023-04-05T05:23:21;91556.19;;;-140.63;59.34
11302;BME280;5706;50.650;13.380;2023-04-05T05:25:49;91604.41;;;-140.63;59.45
11302;BME280;5706;50.650;13.380;2023-04-05T05:28:23;91580.31;;;-140.63;59.35
11302;BME280;5706;50.650;13.380;2023-04-05T05:30:53;91556.19;;;-140.63;59.65
11302;BME280;5706;50.650;13.380;2023-04-05T05:33:20;91586.34;;;-140.63;59.78
11302;BME280;5706;50.650;13.380;2023-04-05T05:35:49;91570.25;;;-140.63;59.43
11302;BME280;5706;50.650;13.380;2023-04-05T05:38:17;91598.38;;;-140.63;59.88
11302;BME280;5706;50.650;13.380;2023-04-05T05:40:45;91580.31;;;-140.63;60.08
11302;BME280;5706;50.650;13.380;2023-04-05T05:43:12;91564.25;;;-140.63;59.78
11302;BME280;5706;50.650;13.380;2023-04-05T05:45:40;91558.22;;;-140.63;59.26
11302;BME280;5706;50.650;13.380;2023-04-05T05:48:09;91548.16;;;-140.63;59.09
11302;BME280;5706;50.650;13.380;2023-04-05T05:50:37;91576.28;;;-140.63;59.10
11302;BME280;5706;50.650;13.380;2023-04-05T05:53:06;91552.19;;;-140.63;58.64
11302;BME280;5706;50.650;13.380;2023-04-05T05:55:33;91560.22;;;-140.63;58.64
11302;BME280;5706;50.650;13.380;2023-04-05T05:58:02;91534.09;;;-140.63;58.19
11302;BME280;5706;50.650;13.380;2023-04-05T06:00:29;91522.06;;;-140.63;58.55
11302;BME280;5706;50.650;13.380;2023-04-05T06:02:57;91445.72;;;-140.63;58.10
11302;BME280;5706;50.650;13.380;2023-04-05T06:05:27;91546.16;;;-140.63;58.35
11302;BME280;5706;50.650;13.380;2023-04-05T06:07:54;91503.97;;;-140.63;58.28
11302;BME280;5706;50.650;13.380;2023-04-05T06:10:22;91524.06;;;-140.63;57.47
11302;BME280;5706;50.650;13.380;2023-04-05T06:12:50;91592.38;;;-140.63;57.82
11302;BME280;5706;50.650;13.380;2023-04-05T06:15:17;91528.09;;;-140.63;57.07
11302;BME280;5706;50.650;13.380;2023-04-05T06:17:45;91497.94;;;-140.63;57.02
11302;BME280;5706;50.650;13.380;2023-04-05T06:20:13;91516.03;;;-140.63;56.21
11302;BME280;5706;50.650;13.380;2023-04-05T06:22:42;91528.09;;;-140.63;56.21
11302;BME280;5706;50.650;13.380;2023-04-05T06:25:09;91530.09;;;-140.63;56.16
11302;BME280;5706;50.650;13.380;2023-04-05T06:27:37;91491.94;;;-140.63;55.75
11302;BME280;5706;50.650;13.380;2023-04-05T06:30:06;91508.00;;;-140.63;55.19
11302;BME280;5706;50.650;13.380;2023-04-05T06:32:34;91439.69;;;-140.63;53.06
11302;BME280;5706;50.650;13.380;2023-04-05T06:35:02;91485.91;;;-140.63;54.77
11302;BME280;5706;50.650;13.380;2023-04-05T06:37:31;91479.88;;;-140.63;54.41
11302;BME280;5706;50.650;13.380;2023-04-05T06:40:00;91475.84;;;-140.63;53.53
11302;BME280;5706;50.650;13.380;2023-04-05T06:42:28;91477.88;;;-140.63;52.85
11302;BME280;5706;50.650;13.380;2023-04-05T06:44:56;91475.84;;;-140.63;53.34
11302;BME280;5706;50.650;13.380;2023-04-05T06:47:23;91469.81;;;-140.63;52.88
11302;BME280;5706;50.650;13.380;2023-04-05T06:49:51;91463.81;;;-140.63;51.50
11302;BME280;5706;50.650;13.380;2023-04-05T06:52:19;91413.59;;;-140.63;52.26
11302;BME280;5706;50.650;13.380;2023-04-05T06:54:47;91451.75;;;-140.63;51.23
11302;BME280;5706;50.650;13.380;2023-04-05T06:57:16;91266.94;;;-140.63;49.66
11302;BME280;5706;50.650;13.380;2023-04-05T06:59:44;91333.22;;;-140.63;47.94
11302;BME280;5706;50.650;13.380;2023-04-05T07:02:12;91349.31;;;-140.63;47.13
11302;BME280;5706;50.650;13.380;2023-04-05T07:04:43;91281.00;;;-140.63;46.60
11302;BME280;5706;50.650;13.380;2023-04-05T07:07:12;91182.59;;;-140.63;45.34
11302;BME280;5706;50.650;13.380;2023-04-05T07:09:41;91142.41;;;-140.63;43.20
11302;BME280;5706;50.650;13.380;2023-04-05T07:12:09;90957.63;;;-140.63;41.24
11302;BME280;5706;50.650;13.380;2023-04-05T07:14:38;90923.50;;;-140.63;38.89
11302;BME280;5706;50.650;13.380;2023-04-05T07:17:06;90971.69;;;-140.63;38.27
11302;BME280;5706;50.650;13.380;2023-04-05T07:19:33;91007.84;;;-140.63;38.92
11302;BME280;5706;50.650;13.380;2023-04-05T07:22:01;91042.00;;;-140.63;39.63
11302;BME280;5706;50.650;13.380;2023-04-05T07:24:29;91086.19;;;-140.63;39.48
11302;BME280;5706;50.650;13.380;2023-04-05T07:26:57;91174.56;;;-140.63;40.44
11302;BME280;5706;50.650;13.380;2023-04-05T07:29:24;91242.84;;;-140.63;42.57
11302;BME280;5706;50.650;13.380;2023-04-05T07:31:53;91216.72;;;-140.63;41.88
11302;BME280;5706;50.650;13.380;2023-04-05T07:34:21;91262.94;;;-140.63;42.36
11302;BME280;5706;50.650;13.380;2023-04-05T07:36:49;91206.69;;;-140.63;42.46
11302;BME280;5706;50.650;13.380;2023-04-05T07:39:16;91230.78;;;-140.63;42.72
11302;BME280;5706;50.650;13.380;2023-04-05T07:41:45;91258.91;;;-140.63;42.27
11302;BME280;5706;50.650;13.380;2023-04-05T07:44:13;91301.09;;;-140.63;42.78
11302;BME280;5706;50.650;13.380;2023-04-05T07:46:40;91272.97;;;-140.63;42.71
11302;BME280;5706;50.650;13.380;2023-04-05T07:49:11;91325.19;;;-140.63;43.39
11302;BME280;5706;50.650;13.380;2023-04-05T07:51:38;91260.91;;;-140.63;42.84
11302;BME280;5706;50.650;13.380;2023-04-05T07:54:09;91266.94;;;-140.63;43.69
11302;BME280;5706;50.650;13.380;2023-04-05T07:56:36;91295.06;;;-140.63;43.28
11302;BME280;5706;50.650;13.380;2023-04-05T07:59:05;91323.19;;;-140.63;41.78
11302;BME280;5706;50.650;13.380;2023-04-05T08:01:34;91240.84;;;-140.63;41.55
11302;BME280;5706;50.650;13.380;2023-04-05T08:04:02;91194.63;;;-140.63;40.95
11302;BME280;5706;50.650;13.380;2023-04-05T08:06:31;91256.91;;;-140.63;41.16
11302;BME280;5706;50.650;13.380;2023-04-05T08:08:58;91210.72;;;-140.63;40.83
11302;BME280;5706;50.650;13.380;2023-04-05T08:11:28;91068.09;;;-140.63;41.23
11302;BME280;5706;50.650;13.380;2023-04-05T08:14:11;91260.91;;;-140.63;40.10
11302;BME280;5706;50.650;13.380;2023-04-05T08:16:56;91250.88;;;-140.63;40.34
11302;BME280;5706;50.650;13.380;2023-04-05T08:19:46;91256.91;;;-140.63;40.21
11302;BME280;5706;50.650;13.380;2023-04-05T08:22:18;91242.84;;;-140.63;40.17
11302;BME280;5706;50.650;13.380;2023-04-05T08:24:46;91216.72;;;-140.63;39.90
11302;BME280;5706;50.650;13.380;2023-04-05T08:27:13;91234.81;;;-140.63;40.90
11302;BME280;5706;50.650;13.380;2023-04-05T08:29:43;91214.72;;;-140.63;40.10
11302;BME280;5706;50.650;13.380;2023-04-05T08:32:10;91186.59;;;-140.63;40.20
11302;BME280;5706;50.650;13.380;2023-04-05T08:34:38;91212.72;;;-140.63;39.67
11302;BME280;5706;50.650;13.380;2023-04-05T08:37:05;91220.75;;;-140.63;40.25
11302;BME280;5706;50.650;13.380;2023-04-05T08:39:35;91212.72;;;-140.63;40.01
11302;BME280;5706;50.650;13.380;2023-04-05T08:42:07;91337.25;;;-140.63;39.34
11302;BME280;5706;50.650;13.380;2023-04-05T08:44:43;91194.63;;;-140.63;38.65
11302;BME280;5706;50.650;13.380;2023-04-05T08:47:14;91208.69;;;-140.63;38.15
11302;BME280;5706;50.650;13.380;2023-04-05T08:49:45;91208.69;;;-140.63;39.22
11302;BME280;5706;50.650;13.380;2023-04-05T08:52:13;91222.75;;;-140.63;38.60
11302;BME280;5706;50.650;13.380;2023-04-05T08:54:42;91194.63;;;-140.63;38.67
11302;BME280;5706;50.650;13.380;2023-04-05T08:57:10;91124.34;;;-140.63;38.08
11302;BME280;5706;50.650;13.380;2023-04-05T08:59:40;91116.31;;;-140.63;38.80
11302;BME280;5706;50.650;13.380;2023-04-05T09:02:14;91102.25;;;-140.63;38.45
11302;BME280;5706;50.650;13.380;2023-04-05T09:04:46;91100.25;;;-140.63;39.29
11302;BME280;5706;50.650;13.380;2023-04-05T09:07:15;91134.38;;;-140.63;38.06
11302;BME280;5706;50.650;13.380;2023-04-05T09:09:50;91064.09;;;-140.63;37.92
11302;BME280;5706;50.650;13.380;2023-04-05T09:12:21;91064.09;;;-140.63;36.38
11302;BME280;5706;50.650;13.380;2023-04-05T09:14:51;91066.09;;;-140.63;36.32
11302;BME280;5706;50.650;13.380;2023-04-05T09:17:20;91130.38;;;-140.63;36.68
11302;BME280;5706;50.650;13.380;2023-04-05T09:19:49;91138.41;;;-140.63;38.54
11302;BME280;5706;50.650;13.380;2023-04-05T09:22:17;91154.47;;;-140.63;37.82
11302;BME280;5706;50.650;13.380;2023-04-05T09:24:46;91158.47;;;-140.63;37.79
11302;BME280;5706;50.650;13.380;2023-04-05T09:27:15;91206.69;;;-140.63;37.89
11302;BME280;5706;50.650;13.380;2023-04-05T09:29:45;91279.00;;;-140.63;37.99
11302;BME280;5706;50.650;13.380;2023-04-05T09:32:14;91186.59;;;-140.63;38.46
11302;BME280;5706;50.650;13.380;2023-04-05T09:34:45;91162.50;;;-140.63;38.12
11302;BME280;5706;50.650;13.380;2023-04-05T09:37:15;91216.72;;;-140.63;37.92
11302;BME280;5706;50.650;13.380;2023-04-05T09:39:45;91160.50;;;-140.63;38.42
11302;BME280;5706;50.650;13.380;2023-04-05T09:42:17;91148.44;;;-140.63;38.22
11302;BME280;5706;50.650;13.380;2023-04-05T09:44:51;91048.00;;;-140.63;37.08
11302;BME280;5706;50.650;13.380;2023-04-05T09:47:21;90985.75;;;-140.63;36.79
11302;BME280;5706;50.650;13.380;2023-04-05T09:49:51;91154.47;;;-140.63;36.36
11302;BME280;5706;50.650;13.380;2023-04-05T09:52:21;90995.78;;;-140.63;37.28
11302;BME280;5706;50.650;13.380;2023-04-05T09:54:52;91021.91;;;-140.63;35.90
11302;BME280;5706;50.650;13.380;2023-04-05T09:57:22;91074.13;;;-140.63;36.45
11302;BME280;5706;50.650;13.380;2023-04-05T09:59:52;91152.47;;;-140.63;37.18
11302;BME280;5706;50.650;13.380;2023-04-05T10:02:21;91168.53;;;-140.63;38.07
11302;BME280;5706;50.650;13.380;2023-04-05T10:04:50;91220.75;;;-140.63;39.24
11302;BME280;5706;50.650;13.380;2023-04-05T10:07:18;91196.66;;;-140.63;38.43
11302;BME280;5706;50.650;13.380;2023-04-05T10:09:47;91120.31;;;-140.63;39.20
11302;BME280;5706;50.650;13.380;2023-04-05T10:12:23;91174.56;;;-140.63;37.92
11302;BME280;5706;50.650;13.380;2023-04-05T10:14:52;91178.56;;;-140.63;37.99
11302;BME280;5706;50.650;13.380;2023-04-05T10:17:23;91228.78;;;-140.63;39.20
11302;BME280;5706;50.650;13.380;2023-04-05T10:20:08;91188.63;;;-140.63;39.17
11302;BME280;5706;50.650;13.380;2023-04-05T10:22:47;91182.59;;;-140.63;39.26
11302;BME280;5706;50.650;13.380;2023-04-05T10:25:30;91206.69;;;-140.63;38.26
11302;BME280;5706;50.650;13.380;2023-04-05T10:28:09;91138.41;;;-140.63;38.27
11302;BME280;5706;50.650;13.380;2023-04-05T10:30:46;91140.41;;;-140.63;38.43
11302;BME280;5706;50.650;13.380;2023-04-05T10:33:19;91156.47;;;-140.63;38.47
11302;BME280;5706;50.650;13.380;2023-04-05T10:36:00;91170.53;;;-140.63;39.25
11302;BME280;5706;50.650;13.380;2023-04-05T10:38:41;91196.66;;;-140.63;38.69
11302;BME280;5706;50.650;13.380;2023-04-05T10:41:16;91108.28;;;-140.63;38.87
11302;BME280;5706;50.650;13.380;2023-04-05T10:43:45;91118.31;;;-140.63;37.86
11302;BME280;5706;50.650;13.380;2023-04-05T10:46:18;91090.19;;;-140.63;37.74
11302;BME280;5706;50.650;13.380;2023-04-05T10:48:53;91108.28;;;-140.63;37.86
11302;BME280;5706;50.650;13.380;2023-04-05T10:51:29;91058.06;;;-140.63;37.81
11302;BME280;5706;50.650;13.380;2023-04-05T10:53:59;91044.00;;;-140.63;38.06
11302;BME280;5706;50.650;13.380;2023-04-05T10:56:30;91148.44;;;-140.63;37.77
11302;BME280;5706;50.650;13.380;2023-04-05T10:59:00;91156.47;;;-140.63;38.84
11302;BME280;5706;50.650;13.380;2023-04-05T11:01:29;91150.44;;;-140.63;38.17
11302;BME280;5706;50.650;13.380;2023-04-05T11:04:10;91134.38;;;-140.63;39.06
11302;BME280;5706;50.650;13.380;2023-04-05T11:06:38;91134.38;;;-140.63;39.06
11302;BME280;5706;50.650;13.380;2023-04-05T11:09:11;91058.06;;;-140.63;38.04
11302;BME280;5706;50.650;13.380;2023-04-05T11:11:42;91186.59;;;-140.63;38.77
11302;BME280;5706;50.650;13.380;2023-04-05T11:14:20;91136.38;;;-140.63;38.44
11302;BME280;5706;50.650;13.380;2023-04-05T11:16:51;91154.47;;;-140.63;38.69
11302;BME280;5706;50.650;13.380;2023-04-05T11:19:48;91062.06;;;-140.63;38.06
11302;BME280;5706;50.650;13.380;2023-04-05T11:22:25;90845.16;;;-140.63;35.97
11302;BME280;5706;50.650;13.380;2023-04-05T11:24:55;90614.22;;;-140.63;34.00
11302;BME280;5706;50.650;13.380;2023-04-05T11:27:27;90491.72;;;-140.63;31.38
11302;BME280;5706;50.650;13.380;2023-04-05T11:29:57;90433.47;;;-140.63;31.38
11302;BME280;5706;50.650;13.380;2023-04-05T11:32:38;90487.69;;;-140.63;32.11
11302;BME280;5706;50.650;13.380;2023-04-05T11:35:12;90837.13;;;-140.63;33.47
11302;BME280;5706;50.650;13.380;2023-04-05T11:37:55;90911.44;;;-140.63;34.13
11302;BME280;5706;50.650;13.380;2023-04-05T11:40:33;90953.63;;;-140.63;35.30
11302;BME280;5706;50.650;13.380;2023-04-05T11:43:05;91009.84;;;-140.63;35.72
11302;BME280;5706;50.650;13.380;2023-04-05T11:45:36;91082.16;;;-140.63;36.51
11302;BME280;5706;50.650;13.380;2023-04-05T11:48:07;91112.28;;;-140.63;36.96
11302;BME280;5706;50.650;13.380;2023-04-05T11:50:36;91170.53;;;-140.63;37.49
11302;BME280;5706;50.650;13.380;2023-04-05T11:53:07;91092.19;;;-140.63;37.79
11302;BME280;5706;50.650;13.380;2023-04-05T11:55:36;91144.44;;;-140.63;37.04
11302;BME280;5706;50.650;13.380;2023-04-05T11:58:12;91118.31;;;-140.63;38.06
11302;BME280;5706;50.650;13.380;2023-04-05T12:00:43;91168.53;;;-140.63;38.83
11302;BME280;5706;50.650;13.380;2023-04-05T12:03:12;91166.53;;;-140.63;39.29
11302;BME280;5706;50.650;13.380;2023-04-05T12:05:45;91182.59;;;-140.63;38.79
11302;BME280;5706;50.650;13.380;2023-04-05T12:08:14;91200.66;;;-140.63;39.17
11302;BME280;5706;50.650;13.380;2023-04-05T12:10:42;91190.63;;;-140.63;40.91
11302;BME280;5706;50.650;13.380;2023-04-05T12:13:10;91210.72;;;-140.63;40.10
11302;BME280;5706;50.650;13.380;2023-04-05T12:15:38;91204.69;;;-140.63;41.13
11302;BME280;5706;50.650;13.380;2023-04-05T12:18:13;91182.59;;;-140.63;40.92
11302;BME280;5706;50.650;13.380;2023-04-05T12:20:41;91204.69;;;-140.63;41.40
11302;BME280;5706;50.650;13.380;2023-04-05T12:23:10;91194.63;;;-140.63;41.66
11302;BME280;5706;50.650;13.380;2023-04-05T12:25:37;91166.53;;;-140.63;42.53
11302;BME280;5706;50.650;13.380;2023-04-05T12:28:06;91226.78;;;-140.63;43.04
11302;BME280;5706;50.650;13.380;2023-04-05T12:30:34;91214.72;;;-140.63;43.66
11302;BME280;5706;50.650;13.380;2023-04-05T12:33:15;91178.56;;;-140.63;42.81
11302;BME280;5706;50.650;13.380;2023-04-05T12:35:53;91134.38;;;-140.63;43.37
11302;BME280;5706;50.650;13.380;2023-04-05T12:38:30;91158.47;;;-140.63;42.90
11302;BME280;5706;50.650;13.380;2023-04-05T12:41:28;91166.53;;;-140.63;42.47
11302;BME280;5706;50.650;13.380;2023-04-05T12:43:57;91266.94;;;-140.63;42.12
11302;BME280;5706;50.650;13.380;2023-04-05T12:46:38;91176.56;;;-140.63;42.26
11302;BME280;5706;50.650;13.380;2023-04-05T12:49:09;91172.53;;;-140.63;42.68
11302;BME280;5706;50.650;13.380;2023-04-05T12:51:40;91162.50;;;-140.63;42.08
11302;BME280;5706;50.650;13.380;2023-04-05T12:54:11;91140.41;;;-140.63;41.72
11302;BME280;5706;50.650;13.380;2023-04-05T12:56:39;91152.47;;;-140.63;42.02
11302;BME280;5706;50.650;13.380;2023-04-05T12:59:07;91140.41;;;-140.63;41.63